Clyde, Texas
Current Conditions -  °F | °C
As of 11:52 AM on Tuesday 21 Oct 2014 (Local Time) from KABI Reporting Station
Scattered Clouds Scattered Clouds  
Wind Chill: 25°   Ceiling: Unl
Heat Index: 26°   Visibility: 10mi
Dew Point: 13°   Wind: 10mph
Humidity: 48%   Direction: 170°S
Pressure: 30.12"   Gusts: NA
Location:  32.41°N, 99.49°W
Report Text: KABI 211652Z 17009KT 120V210 10SM SCT040 25/13 A3012 RMK AO2 SLP180 T02500133
Loading
Personal Weather Stations






























Interactive Weather Map
Tropical Storm Tracking
New forecast layout! Learn more

10-Day Weather Forecast

Advertisements
Track Severe Weather on mobile